createdAt,value
2023-11-01T04:50:00.705Z,11.60
2023-11-01T04:52:27.890Z,11.73
2023-11-01T04:54:55.049Z,11.53
2023-11-01T04:57:22.189Z,11.51
2023-11-01T04:59:49.118Z,11.60
2023-11-01T05:02:17.201Z,11.73
2023-11-01T05:04:44.231Z,11.70
2023-11-01T05:07:11.158Z,11.87
2023-11-01T05:09:38.079Z,11.96
2023-11-01T05:12:05.088Z,11.90
2023-11-01T05:14:32.061Z,11.91
2023-11-01T05:16:59.210Z,12.00
2023-11-01T05:19:26.244Z,12.02
2023-11-01T05:21:53.165Z,11.91
2023-11-01T05:24:20.068Z,11.98
2023-11-01T05:26:47.143Z,11.92
2023-11-01T05:29:14.106Z,11.82
2023-11-01T05:31:40.998Z,11.87
2023-11-01T05:34:07.909Z,11.92
2023-11-01T05:36:34.800Z,11.96
2023-11-01T05:39:01.720Z,11.83
2023-11-01T05:41:28.764Z,11.95
2023-11-01T05:43:55.669Z,11.87
2023-11-01T05:46:23.648Z,12.00
2023-11-01T05:48:50.647Z,11.66
2023-11-01T05:51:17.545Z,11.69
2023-11-01T05:53:44.433Z,11.31
2023-11-01T05:56:11.433Z,11.30
2023-11-01T05:58:38.341Z,11.18
2023-11-01T06:01:05.261Z,11.50
2023-11-01T06:03:32.739Z,11.65
2023-11-01T06:06:01.538Z,11.70
2023-11-01T06:08:28.566Z,11.80
2023-11-01T06:10:55.709Z,11.80
2023-11-01T06:13:22.626Z,11.88
2023-11-01T06:15:49.558Z,11.73
2023-11-01T06:18:16.589Z,11.75
2023-11-01T06:20:45.123Z,11.74
2023-11-01T06:23:12.191Z,11.89
2023-11-01T06:25:39.239Z,11.86
2023-11-01T06:28:06.730Z,12.01
2023-11-01T06:30:36.544Z,11.87
2023-11-01T06:33:03.951Z,11.58
2023-11-01T06:35:31.566Z,11.42
2023-11-01T06:37:58.534Z,11.35
2023-11-01T06:43:16.350Z,11.65
2023-11-01T06:45:43.223Z,11.96
2023-11-01T06:48:10.278Z,12.00
2023-11-01T06:50:37.551Z,12.04
2023-11-01T06:53:04.526Z,12.21
2023-11-01T06:55:31.546Z,12.09
2023-11-01T06:57:58.479Z,12.05
2023-11-01T07:00:25.523Z,12.27
2023-11-01T07:02:52.634Z,12.33
2023-11-01T07:05:19.723Z,12.42
2023-11-01T07:07:46.718Z,12.34
2023-11-01T07:10:13.770Z,12.42
2023-11-01T07:12:40.733Z,12.33
2023-11-01T07:15:07.650Z,11.93
2023-11-01T07:17:34.676Z,11.97
2023-11-01T07:20:01.725Z,12.29
2023-11-01T07:22:28.613Z,12.48
2023-11-01T07:24:55.669Z,12.33
2023-11-01T07:27:22.575Z,11.90
2023-11-01T07:29:49.536Z,11.86
2023-11-01T07:32:16.577Z,11.77
2023-11-01T07:34:43.544Z,11.69
2023-11-01T07:37:10.600Z,11.43
2023-11-01T07:39:37.580Z,11.78
2023-11-01T07:42:04.639Z,12.14
2023-11-01T07:44:31.563Z,11.96
2023-11-01T07:46:58.560Z,11.88
2023-11-01T07:49:25.517Z,11.68
2023-11-01T07:51:52.424Z,12.26
2023-11-01T07:54:19.439Z,12.21
2023-11-01T07:56:46.576Z,12.14
2023-11-01T07:59:13.514Z,12.52
2023-11-01T08:01:40.668Z,12.05
2023-11-01T08:04:07.999Z,12.23
2023-11-01T08:06:35.301Z,12.00
2023-11-01T08:09:02.479Z,12.33
2023-11-01T08:11:30.637Z,11.85
2023-11-01T08:19:52.050Z,12.06
2023-11-01T08:22:19.117Z,12.60
2023-11-01T08:24:46.174Z,12.32
2023-11-01T08:27:13.207Z,12.48
2023-11-01T08:29:43.857Z,12.24
2023-11-01T08:32:11.149Z,12.69
2023-11-01T08:34:38.543Z,12.59
2023-11-01T08:42:29.447Z,12.70
2023-11-01T08:44:57.806Z,12.80
2023-11-01T08:47:24.917Z,12.66
2023-11-01T08:49:52.004Z,12.52
2023-11-01T08:52:19.989Z,12.76
2023-11-01T08:54:46.930Z,12.08
2023-11-01T08:57:13.889Z,12.32
2023-11-01T08:59:40.887Z,12.41
2023-11-01T09:02:13.699Z,12.77
2023-11-01T09:04:42.895Z,12.32
2023-11-01T09:07:09.924Z,12.71
2023-11-01T09:09:36.830Z,12.48
2023-11-01T09:12:03.873Z,12.70
2023-11-01T09:14:30.863Z,12.54
2023-11-01T09:16:57.857Z,12.44
2023-11-01T09:19:28.580Z,12.58
2023-11-01T09:22:06.423Z,12.56
2023-11-01T09:24:33.536Z,12.56
2023-11-01T09:27:00.498Z,12.83
2023-11-01T09:29:27.440Z,12.68
2023-11-01T09:31:54.381Z,12.84
2023-11-01T09:34:21.454Z,12.76
2023-11-01T09:36:48.386Z,12.35
2023-11-01T09:39:15.229Z,12.88
2023-11-01T09:41:42.432Z,13.08
2023-11-01T09:44:09.402Z,13.32
2023-11-01T09:46:36.423Z,13.58
2023-11-01T09:49:03.492Z,13.77
2023-11-01T09:51:30.409Z,13.79
2023-11-01T09:53:57.359Z,13.79
2023-11-01T09:56:24.380Z,13.84
2023-11-01T09:58:51.350Z,13.36
2023-11-01T10:01:18.327Z,13.81
2023-11-01T10:03:45.400Z,13.78
2023-11-01T10:06:12.698Z,13.54
2023-11-01T10:08:39.600Z,13.62
2023-11-01T10:11:12.624Z,13.65
2023-11-01T10:13:39.609Z,13.54
2023-11-01T10:16:06.618Z,13.70
2023-11-01T10:18:33.726Z,13.74
2023-11-01T10:21:00.761Z,13.73
2023-11-01T10:23:27.763Z,13.90
2023-11-01T10:25:54.759Z,13.91
2023-11-01T10:28:21.711Z,13.85
2023-11-01T10:30:48.601Z,13.74
2023-11-01T10:33:15.738Z,13.31
2023-11-01T10:35:51.939Z,13.11
2023-11-01T10:38:18.940Z,13.73
2023-11-01T10:40:49.121Z,13.75
2023-11-01T10:43:16.102Z,13.92
2023-11-01T10:45:43.056Z,13.97
2023-11-01T10:48:10.223Z,13.91
2023-11-01T10:50:37.213Z,14.07
2023-11-01T10:53:04.196Z,13.89
2023-11-01T10:55:31.191Z,13.79
2023-11-01T10:57:58.096Z,13.64
2023-11-01T11:00:25.113Z,13.47
2023-11-01T11:02:52.181Z,13.62
2023-11-01T11:05:20.666Z,13.02
2023-11-01T11:07:47.561Z,13.03
2023-11-01T11:10:14.674Z,13.29
2023-11-01T11:12:41.599Z,13.28
2023-11-01T11:15:09.544Z,13.72
2023-11-01T11:17:36.634Z,14.08
2023-11-01T11:20:03.563Z,14.11
2023-11-01T11:22:30.432Z,14.14
2023-11-01T11:24:57.341Z,14.26
2023-11-01T11:27:24.182Z,14.47
2023-11-01T11:29:51.116Z,14.36
2023-11-01T11:32:18.288Z,14.57
2023-11-01T11:34:45.383Z,14.58
2023-11-01T11:37:12.371Z,14.75
2023-11-01T11:39:39.698Z,14.84
2023-11-01T11:42:06.667Z,15.00
2023-11-01T11:44:33.812Z,15.01
2023-11-01T11:47:00.860Z,14.98
2023-11-01T11:49:27.969Z,15.06
2023-11-01T11:51:55.077Z,15.19
2023-11-01T11:54:22.380Z,15.10
2023-11-01T11:56:49.605Z,14.95
2023-11-01T11:59:16.577Z,15.21
2023-11-01T12:01:43.626Z,15.23
2023-11-01T12:04:10.680Z,15.34
2023-11-01T12:06:37.667Z,15.06
2023-11-01T12:09:04.733Z,15.37
2023-11-01T12:11:31.756Z,15.33
2023-11-01T12:13:58.721Z,14.96
2023-11-01T12:16:25.792Z,14.97
2023-11-01T12:18:52.685Z,15.07
2023-11-01T12:21:20.982Z,15.31
2023-11-01T12:23:49.789Z,15.32
2023-11-01T12:26:17.794Z,15.35
2023-11-01T12:28:44.714Z,15.12
2023-11-01T12:31:11.689Z,15.23
2023-11-01T12:33:38.740Z,15.24
2023-11-01T12:36:05.747Z,15.42
2023-11-01T12:38:32.853Z,15.38
2023-11-01T12:40:59.839Z,15.50
2023-11-01T12:43:26.756Z,15.66
2023-11-01T12:45:53.865Z,15.76
2023-11-01T12:48:20.840Z,15.54
2023-11-01T12:50:47.830Z,15.36
2023-11-01T12:53:14.798Z,15.62
2023-11-01T12:55:41.731Z,15.65
2023-11-01T12:58:14.534Z,15.62
2023-11-01T15:15:34.830Z,12.09
2023-11-01T19:54:13.487Z,12.12
2023-11-01T19:56:44.058Z,12.01
2023-11-01T19:59:11.486Z,12.32
2023-11-01T20:01:38.666Z,12.33
2023-11-01T20:04:06.078Z,12.31
2023-11-01T20:06:33.231Z,12.52
2023-11-01T20:39:22.394Z,12.65
2023-11-01T20:41:49.470Z,12.37
2023-11-01T20:44:16.452Z,12.41
2023-11-01T20:46:43.451Z,12.55
2023-11-01T20:49:10.820Z,12.71
2023-11-01T20:51:38.505Z,12.64
2023-11-01T20:54:05.483Z,12.58
2023-11-01T20:56:32.567Z,12.50
2023-11-01T20:58:59.510Z,12.47
2023-11-01T21:01:26.447Z,12.60
2023-11-01T21:03:53.639Z,12.38
2023-11-01T21:06:20.795Z,12.30
2023-11-01T21:08:47.875Z,12.18
2023-11-01T21:11:14.967Z,12.18
2023-11-01T21:13:42.000Z,12.07
2023-11-01T21:16:08.991Z,12.01
2023-11-01T21:18:36.380Z,12.23
2023-11-01T21:21:03.501Z,12.31
2023-11-01T21:23:30.533Z,12.41
2023-11-01T21:25:58.735Z,12.43
2023-11-01T21:28:25.843Z,12.36
2023-11-01T21:30:56.257Z,11.97
2023-11-01T21:36:23.540Z,12.25
